createdAt,value
2023-04-02T00:00:45.385Z,1.7
2023-04-02T00:03:47.377Z,1.3
2023-04-02T00:06:49.313Z,1.4
2023-04-02T00:09:51.235Z,1.5
2023-04-02T00:12:53.185Z,3.1
2023-04-02T00:15:55.161Z,2.1
2023-04-02T00:18:57.122Z,1.9
2023-04-02T00:21:59.145Z,1.4
2023-04-02T00:25:01.114Z,1.4
2023-04-02T00:28:03.079Z,1.2
2023-04-02T00:31:05.050Z,1.1
2023-04-02T00:34:07.024Z,1.2
2023-04-02T00:37:08.994Z,4.3
2023-04-02T00:40:11.000Z,1.1
2023-04-02T00:43:12.910Z,1.8
2023-04-02T00:46:14.935Z,1.6
2023-04-02T00:49:16.786Z,2.3
2023-04-02T00:52:18.814Z,2.4
2023-04-02T00:55:20.817Z,2.2
2023-04-02T00:58:22.760Z,2.1
2023-04-02T01:01:24.832Z,2.6
2023-04-02T01:04:26.728Z,2.2
2023-04-02T01:07:28.691Z,2.3
2023-04-02T01:10:30.664Z,3.1
2023-04-02T01:13:32.623Z,1.8
2023-04-02T01:16:34.582Z,1.8
2023-04-02T01:19:36.543Z,1.8
2023-04-02T01:22:38.494Z,1.8
2023-04-02T01:25:40.541Z,2.8
2023-04-02T01:28:42.444Z,2
2023-04-02T01:31:44.580Z,1.8
2023-04-02T01:34:46.480Z,3.7
2023-04-02T01:37:48.468Z,2.1
2023-04-02T01:40:50.476Z,4.6
2023-04-02T01:43:52.443Z,3.8
2023-04-02T01:46:54.410Z,2.8
2023-04-02T01:49:56.374Z,2.7
2023-04-02T01:52:58.318Z,4.1
2023-04-02T01:56:00.296Z,3.2
2023-04-02T01:59:02.282Z,3.8
2023-04-02T02:02:04.288Z,3.5
2023-04-02T02:05:06.143Z,4.5
2023-04-02T02:08:08.132Z,4.5
2023-04-02T02:11:10.110Z,4.5
2023-04-02T02:14:12.069Z,5.7
2023-04-02T02:17:14.034Z,5
2023-04-02T02:20:16.008Z,4.7
2023-04-02T02:23:17.935Z,7.5
2023-04-02T02:26:19.899Z,5.3
2023-04-02T02:29:21.847Z,5.3
2023-04-02T02:32:23.875Z,6.4
2023-04-02T02:35:25.782Z,5.2
2023-04-02T02:38:27.721Z,4.8
2023-04-02T02:41:29.691Z,5.5
2023-04-02T02:44:31.650Z,4.6
2023-04-02T02:47:33.659Z,4.2
2023-04-02T02:50:35.569Z,5.5
2023-04-02T02:53:37.562Z,4.7
2023-04-02T02:56:39.570Z,4.5
2023-04-02T02:59:41.530Z,6.7
2023-04-02T03:02:43.549Z,6.8
2023-04-02T03:05:48.228Z,5.7
2023-04-02T03:08:50.152Z,6.3
2023-04-02T03:11:52.162Z,4.9
2023-04-02T03:14:54.075Z,5.4
2023-04-02T03:17:56.103Z,6.6
2023-04-02T03:20:58.017Z,4.5
2023-04-02T03:23:59.961Z,8.1
2023-04-02T03:27:01.941Z,4.7
2023-04-02T03:30:03.885Z,6
2023-04-02T03:33:06.002Z,6.6
2023-04-02T03:36:07.866Z,4.8
2023-04-02T03:39:09.787Z,6.2
2023-04-02T03:42:11.958Z,5.6
2023-04-02T03:45:13.732Z,5.3
2023-04-02T03:48:15.675Z,5
2023-04-02T03:51:17.647Z,4.1
2023-04-02T03:54:19.605Z,3.9
2023-04-02T03:57:21.609Z,4.8
2023-04-02T04:00:23.473Z,4.5
2023-04-02T04:03:25.456Z,4.1
2023-04-02T04:06:27.400Z,3.8
2023-04-02T04:09:29.361Z,4.5
2023-04-02T04:12:31.356Z,4.5
2023-04-02T04:15:33.711Z,4.6
2023-04-02T04:18:35.252Z,5
2023-04-02T04:21:37.219Z,6.3
2023-04-02T04:24:39.214Z,4.4
2023-04-02T04:27:41.366Z,6.2
2023-04-02T04:30:43.089Z,6
2023-04-02T04:33:45.095Z,6.6
2023-04-02T04:36:47.035Z,5.2
2023-04-02T04:39:49.009Z,6.1
2023-04-02T04:42:50.965Z,4.8
2023-04-02T04:45:52.947Z,6.8
2023-04-02T04:48:54.949Z,7.2
2023-04-02T04:51:56.843Z,4.9
2023-04-02T04:54:58.805Z,4.7
2023-04-02T04:58:00.823Z,5.4
2023-04-02T05:01:02.801Z,5.8
2023-04-02T05:04:04.728Z,6
2023-04-02T05:07:06.710Z,7.3
2023-04-02T05:10:08.687Z,6.3
2023-04-02T05:13:10.672Z,7.4
2023-04-02T05:16:12.647Z,5.6
2023-04-02T05:19:14.571Z,6.7
2023-04-02T05:22:16.568Z,7.6
2023-04-02T05:25:18.494Z,8.2
2023-04-02T05:28:20.487Z,6.2
2023-04-02T05:31:22.512Z,6.8
2023-04-02T05:34:24.393Z,6.9
2023-04-02T05:37:26.350Z,6.9
2023-04-02T05:40:28.307Z,7.5
2023-04-02T05:43:30.291Z,8.6
2023-04-02T05:46:32.330Z,5.3
2023-04-02T05:49:34.229Z,5.8
2023-04-02T05:52:36.244Z,5.1
2023-04-02T05:55:38.166Z,7.2
2023-04-02T05:58:40.639Z,7.1
2023-04-02T06:01:42.198Z,9.1
2023-04-02T06:04:44.068Z,10.6
2023-04-02T06:07:46.099Z,9.1
2023-04-02T06:10:48.025Z,9.1
2023-04-02T06:13:50.070Z,10.3
2023-04-02T06:16:52.039Z,8
2023-04-02T06:19:53.958Z,11.4
2023-04-02T06:22:55.928Z,11.8
2023-04-02T06:25:57.912Z,6.3
2023-04-02T06:28:59.944Z,3.4
2023-04-02T06:32:01.904Z,2.7
2023-04-02T06:35:03.879Z,2
2023-04-02T06:38:05.872Z,2
2023-04-02T06:41:07.874Z,1
2023-04-02T06:44:09.823Z,0.9
2023-04-02T06:47:11.934Z,0.5
2023-04-02T06:50:13.763Z,0.5
2023-04-02T06:53:15.707Z,0.8
2023-04-02T06:56:17.650Z,0.8
2023-04-02T06:59:19.651Z,1.1
2023-04-02T07:02:21.606Z,0.6
2023-04-02T07:05:23.604Z,1.9
2023-04-02T07:08:25.564Z,1.7
2023-04-02T07:11:27.478Z,0.6
2023-04-02T07:14:29.492Z,0.7
2023-04-02T07:17:31.515Z,1.9
2023-04-02T07:20:33.375Z,0.6
2023-04-02T07:23:35.321Z,0.7
2023-04-02T07:26:37.268Z,1.8
2023-04-02T07:29:39.235Z,0.7
2023-04-02T07:32:41.254Z,0.9
2023-04-02T07:35:43.233Z,0.9
2023-04-02T07:38:45.183Z,0.4
2023-04-02T07:41:47.111Z,0.7
2023-04-02T07:44:49.053Z,2
2023-04-02T07:47:51.043Z,0.8
2023-04-02T07:50:53.069Z,0.8
2023-04-02T07:53:54.993Z,0.5
2023-04-02T07:56:56.995Z,1.4
2023-04-02T07:59:58.874Z,0.6
2023-04-02T08:03:00.871Z,0.8
2023-04-02T08:06:03.015Z,0.5
2023-04-02T08:09:04.772Z,0.4
2023-04-02T08:12:06.725Z,1
2023-04-02T08:15:08.698Z,2.1
2023-04-02T08:18:10.732Z,1.6
2023-04-02T08:24:14.615Z,1.6
2023-04-02T08:27:16.576Z,1.8
2023-04-02T08:30:18.609Z,0.9
2023-04-02T08:33:20.456Z,1
2023-04-02T08:36:22.451Z,0.4
2023-04-02T08:39:24.378Z,1.1
2023-04-02T08:42:26.347Z,2
2023-04-02T08:45:28.548Z,0.7
2023-04-02T08:48:30.361Z,1.8
2023-04-02T08:51:32.269Z,1.5
2023-04-02T08:57:36.206Z,2.5
2023-04-02T09:00:38.202Z,0.7
2023-04-02T09:03:40.124Z,1.8
2023-04-02T09:06:42.087Z,0.8
2023-04-02T09:09:44.065Z,1.3
2023-04-02T09:12:46.029Z,1
2023-04-02T09:15:47.975Z,0.9
2023-04-02T09:18:49.915Z,1.4
2023-04-02T09:21:51.900Z,1
2023-04-02T09:24:53.820Z,1.9
2023-04-02T09:27:55.792Z,1
2023-04-02T09:30:57.784Z,1.1
2023-04-02T09:33:59.694Z,1.9
2023-04-02T09:37:01.663Z,1
2023-04-02T09:40:03.607Z,1.3
2023-04-02T09:43:05.599Z,1.2
2023-04-02T09:46:07.554Z,1.3
2023-04-02T09:49:09.557Z,1.4
2023-04-02T09:52:11.502Z,1.7
2023-04-02T09:55:13.448Z,1.5
2023-04-02T09:58:15.384Z,1.2
2023-04-02T10:01:17.395Z,1.7
2023-04-02T10:04:19.371Z,1.4
2023-04-02T10:07:21.271Z,1.3
2023-04-02T10:10:25.149Z,1.3
2023-04-02T10:13:25.202Z,1.3
2023-04-02T10:16:27.248Z,1.4
2023-04-02T10:19:29.130Z,1.3
2023-04-02T10:22:31.081Z,2.3
2023-04-02T10:25:33.122Z,1.2
2023-04-02T10:28:35.038Z,1.6
2023-04-02T10:31:37.010Z,1.2
2023-04-02T10:34:39.409Z,1.1
2023-04-02T10:37:40.942Z,1.1
2023-04-02T10:40:42.885Z,0.8
2023-04-02T10:43:44.989Z,0.9
2023-04-02T10:46:46.850Z,1.1
2023-04-02T10:49:48.825Z,1.2
2023-04-02T10:52:50.787Z,2.3
2023-04-02T10:55:52.726Z,1
2023-04-02T10:58:56.897Z,1.4
2023-04-02T11:01:56.690Z,1.4
2023-04-02T11:04:59.910Z,1
2023-04-02T11:08:00.620Z,1.4
2023-04-02T11:11:04.461Z,1.4
2023-04-02T11:14:04.512Z,1.1
2023-04-02T11:17:06.456Z,1.5
2023-04-02T11:20:08.406Z,1.1
2023-04-02T11:23:10.383Z,1.1
2023-04-02T11:26:12.362Z,1.1
2023-04-02T11:29:14.303Z,2.1
2023-04-02T11:32:16.300Z,1.9
2023-04-02T11:35:18.207Z,1.6
2023-04-02T11:38:20.162Z,2.5
2023-04-02T11:41:22.159Z,2
2023-04-02T11:44:24.096Z,1.6
2023-04-02T11:47:26.063Z,2
2023-04-02T11:50:28.018Z,1.7
2023-04-02T11:53:29.976Z,2.6
2023-04-02T11:56:31.986Z,1.8
2023-04-02T11:59:33.918Z,1.6
2023-04-02T12:02:35.924Z,2.7
2023-04-02T12:05:38.187Z,1.6
2023-04-02T12:08:50.810Z,2.3
2023-04-02T12:11:42.041Z,2.2
2023-04-02T12:14:43.851Z,1.9
2023-04-02T12:17:45.812Z,3.1
2023-04-02T12:20:47.742Z,4
2023-04-02T12:23:49.692Z,2.4
2023-04-02T12:26:51.640Z,2.5
2023-04-02T12:29:53.609Z,2.2
2023-04-02T12:32:55.650Z,3
2023-04-02T12:35:57.670Z,3.5
2023-04-02T12:38:59.526Z,2.1
2023-04-02T12:42:01.469Z,3
2023-04-02T12:45:03.471Z,2.1
2023-04-02T12:48:05.469Z,3.5
2023-04-02T12:51:07.371Z,2.7
2023-04-02T12:54:09.316Z,2.9
2023-04-02T12:57:11.367Z,2.8
2023-04-02T13:00:13.274Z,4
2023-04-02T13:03:15.330Z,4.1
2023-04-02T13:06:17.194Z,3.1
2023-04-02T13:09:19.147Z,2.6
2023-04-02T13:12:21.144Z,3.1
2023-04-02T13:15:23.129Z,4.4
2023-04-02T13:18:25.083Z,3.7
2023-04-02T13:21:28.267Z,2.9
2023-04-02T13:24:28.973Z,3.7
2023-04-02T13:27:30.952Z,5.1
2023-04-02T13:30:32.946Z,3.1
2023-04-02T13:33:34.885Z,4
2023-04-02T13:36:36.853Z,3.7
2023-04-02T13:39:38.779Z,3.7
2023-04-02T13:42:40.785Z,4.3
2023-04-02T13:45:42.757Z,5.1
2023-04-02T13:48:44.687Z,4.4
2023-04-02T13:51:46.683Z,4.9
2023-04-02T13:54:48.643Z,5
2023-04-02T13:57:50.595Z,4.8
2023-04-02T14:00:52.557Z,5
2023-04-02T14:03:54.563Z,5.8
2023-04-02T14:06:56.430Z,7.4
2023-04-02T14:09:58.466Z,5.8
2023-04-02T14:13:00.369Z,6.2
2023-04-02T14:16:02.329Z,6.8
2023-04-02T14:19:04.289Z,4.6
2023-04-02T14:22:06.243Z,6.9
2023-04-02T14:25:08.206Z,5.1
2023-04-02T14:28:10.156Z,6.2
2023-04-02T14:31:12.284Z,5.3
2023-04-02T14:34:14.109Z,5
2023-04-02T14:37:16.094Z,6.2
2023-04-02T14:40:18.058Z,6.7
2023-04-02T14:43:19.994Z,5.1
2023-04-02T14:46:21.991Z,6
2023-04-02T14:49:23.908Z,6.8
2023-04-02T14:52:25.844Z,5.6
2023-04-02T14:55:27.820Z,5.9
2023-04-02T14:58:29.755Z,5.4
2023-04-02T15:01:31.882Z,6.8
2023-04-02T15:04:33.699Z,4.9
2023-04-02T15:07:35.661Z,6.2
2023-04-02T15:10:37.867Z,4.8
2023-04-02T15:13:39.579Z,5
2023-04-02T15:16:41.758Z,5.3
2023-04-02T15:19:43.539Z,6.6
2023-04-02T15:22:45.483Z,5.8
2023-04-02T15:25:47.477Z,5
2023-04-02T15:28:49.445Z,3.7
2023-04-02T15:31:51.419Z,8.4
2023-04-02T15:34:53.388Z,3.5
2023-04-02T15:37:55.328Z,5.2
2023-04-02T15:40:57.304Z,4.9
2023-04-02T15:43:59.282Z,6
2023-04-02T15:47:01.231Z,7.5
2023-04-02T15:50:03.215Z,6.8
2023-04-02T15:53:05.128Z,6.1
2023-04-02T15:56:07.120Z,4.8
2023-04-02T15:59:09.039Z,5.8
2023-04-02T16:02:10.997Z,6.6
2023-04-02T16:05:12.952Z,5.5
2023-04-02T16:08:15.006Z,5.9
2023-04-02T16:11:16.979Z,7.1
2023-04-02T16:14:18.932Z,7.7
2023-04-02T16:17:24.711Z,7
2023-04-02T16:20:22.824Z,5.9
2023-04-02T16:23:24.762Z,5.1
2023-04-02T16:26:26.728Z,5.9
2023-04-02T16:29:28.676Z,7.9
2023-04-02T16:32:30.655Z,7
2023-04-02T16:35:41.543Z,7.2
2023-04-02T16:38:34.538Z,5.4
2023-04-02T16:41:36.502Z,6.5
2023-04-02T16:44:38.454Z,5.7
2023-04-02T16:47:40.553Z,5.3
2023-04-02T16:50:42.409Z,6
2023-04-02T16:53:54.683Z,7.7
2023-04-02T16:56:46.329Z,4.9
2023-04-02T16:59:48.309Z,5.3
2023-04-02T17:02:50.269Z,5.4
2023-04-02T17:05:52.259Z,6.1
2023-04-02T17:08:54.362Z,4.9
2023-04-02T17:11:56.299Z,5.4
2023-04-02T17:14:58.106Z,6.2
2023-04-02T17:18:00.089Z,5.2
2023-04-02T17:21:02.024Z,4.6
2023-04-02T17:24:03.997Z,5.6
2023-04-02T17:27:06.016Z,6
2023-04-02T17:30:07.910Z,4.5
2023-04-02T17:33:09.869Z,5
2023-04-02T17:36:11.824Z,4.5
2023-04-02T17:39:13.779Z,5.5
2023-04-02T17:42:15.778Z,4.6
2023-04-02T17:45:17.739Z,5.5
2023-04-02T17:48:19.708Z,4.8
2023-04-02T17:51:21.685Z,6
2023-04-02T17:54:23.604Z,4.4
2023-04-02T17:57:25.689Z,7
2023-04-02T18:00:27.533Z,6.5
2023-04-02T18:03:30.179Z,5.7
2023-04-02T18:06:31.488Z,5.4
2023-04-02T18:09:33.445Z,4.6
2023-04-02T18:12:35.374Z,4.6
2023-04-02T18:15:37.330Z,4.9
2023-04-02T18:18:39.300Z,5.6
2023-04-02T18:21:41.278Z,5.9
2023-04-02T18:24:43.239Z,4.6
2023-04-02T18:27:45.225Z,5.9
2023-04-02T18:30:47.158Z,4.9
2023-04-02T18:33:49.098Z,4.8
2023-04-02T18:36:51.091Z,5.7
2023-04-02T18:39:53.149Z,3.5
2023-04-02T18:42:55.074Z,7.3
2023-04-02T18:45:57.070Z,4.4
2023-04-02T18:48:58.960Z,3.9
2023-04-02T18:52:00.929Z,3.9
2023-04-02T18:55:02.891Z,4.8
2023-04-02T18:58:04.881Z,4
2023-04-02T19:01:06.881Z,3.3
2023-04-02T19:04:08.795Z,8.3
2023-04-02T19:07:10.833Z,4.9
2023-04-02T19:10:12.936Z,4.6
2023-04-02T19:13:14.844Z,6.3
2023-04-02T19:16:16.870Z,5.5
2023-04-02T19:19:18.814Z,4.5
2023-04-02T19:22:20.768Z,5.6
2023-04-02T19:25:24.216Z,4.3
2023-04-02T19:28:24.720Z,6.1
2023-04-02T19:31:26.695Z,5.8
2023-04-02T19:34:28.653Z,5.1
2023-04-02T19:37:30.594Z,5.1
2023-04-02T19:40:32.642Z,5.4
2023-04-02T19:43:34.560Z,6.3
2023-04-02T19:46:36.616Z,5.4
2023-04-02T19:49:38.504Z,4
2023-04-02T19:52:40.468Z,5.6
2023-04-02T19:55:42.437Z,3.2
2023-04-02T19:58:44.392Z,4.1
2023-04-02T20:01:46.451Z,4
2023-04-02T20:04:48.376Z,3.2
2023-04-02T20:07:50.360Z,3.4
2023-04-02T20:10:52.328Z,6.3
2023-04-02T20:13:54.300Z,4.1
2023-04-02T20:16:56.258Z,3.4
2023-04-02T20:19:58.209Z,3.1
2023-04-02T20:23:00.165Z,2.6
2023-04-02T20:26:02.153Z,5.4
2023-04-02T20:29:04.105Z,3.3
2023-04-02T20:32:06.089Z,4.5
2023-04-02T20:35:08.011Z,5.4
2023-04-02T20:38:10.011Z,4
2023-04-02T20:41:12.196Z,3.6
2023-04-02T20:44:13.937Z,2.8
2023-04-02T20:47:15.992Z,3.1
2023-04-02T20:50:17.945Z,3.5
2023-04-02T20:53:19.908Z,4.7
2023-04-02T20:56:21.847Z,3.5
2023-04-02T20:59:23.800Z,4.2
2023-04-02T21:02:25.809Z,3.3
2023-04-02T21:05:27.847Z,4.2
2023-04-02T21:08:29.753Z,4.9
2023-04-02T21:11:31.694Z,3.5
2023-04-02T21:14:33.649Z,3
2023-04-02T21:17:35.696Z,2.9
2023-04-02T21:20:37.593Z,4.9
2023-04-02T21:23:39.561Z,4.5
2023-04-02T21:26:41.557Z,3.9
2023-04-02T21:29:43.554Z,3.5
2023-04-02T21:32:45.581Z,3.5
2023-04-02T21:35:47.449Z,4.6
2023-04-02T21:38:49.405Z,4.6
2023-04-02T21:41:51.330Z,3.7
2023-04-02T21:44:53.318Z,4.9
2023-04-02T21:47:55.468Z,3.4
2023-04-02T21:50:57.293Z,3.7
2023-04-02T21:53:59.245Z,3.8
2023-04-02T21:57:01.247Z,4.5
2023-04-02T22:00:03.168Z,4.7
2023-04-02T22:03:05.171Z,4.6
2023-04-02T22:06:07.100Z,3.8
2023-04-02T22:09:09.083Z,4.6
2023-04-02T22:12:11.372Z,3.3
2023-04-02T22:15:13.100Z,3.8
2023-04-02T22:18:14.987Z,4.1
2023-04-02T22:21:16.981Z,4.2
2023-04-02T22:24:18.936Z,3.6
2023-04-02T22:27:20.893Z,4.1
2023-04-02T22:30:22.898Z,3.8
2023-04-02T22:33:24.864Z,4.4
2023-04-02T22:36:26.837Z,4.4
2023-04-02T22:39:28.855Z,4
2023-04-02T22:42:30.842Z,3.5
2023-04-02T22:45:32.760Z,3.5
2023-04-02T22:48:34.703Z,3.3
2023-04-02T22:51:36.692Z,3.8
2023-04-02T22:54:38.673Z,3.1
2023-04-02T22:57:40.644Z,3.9
2023-04-02T23:00:42.596Z,3.6
2023-04-02T23:03:44.571Z,3.8
2023-04-02T23:06:46.584Z,3.6
2023-04-02T23:09:48.602Z,3.4
2023-04-02T23:12:50.544Z,3.9
2023-04-02T23:15:52.540Z,3.5
2023-04-02T23:18:54.482Z,4.5
2023-04-02T23:21:56.453Z,5.8
2023-04-02T23:24:58.462Z,4.7
2023-04-02T23:28:00.387Z,5.6
2023-04-02T23:31:02.455Z,3.9
2023-04-02T23:34:04.291Z,3.2
2023-04-02T23:37:06.257Z,3.1
2023-04-02T23:40:08.243Z,3.9
2023-04-02T23:43:10.220Z,4.6
2023-04-02T23:46:12.239Z,3.5
2023-04-02T23:49:14.147Z,4.5
2023-04-02T23:52:16.083Z,4.5
2023-04-02T23:55:18.078Z,2.5
2023-04-02T23:58:20.045Z,3.7
